APN weather

Alpena County Regional Airport
Alpena, Michigan, United States

Public forecast

Using degrees Fahrenheit for public forecast. Weather courtesy of forecast.io.

METAR (pilot weather report)

Retrieved 2019/05/20 18:27 UTC (22 minutes ago):

KAPN 201827Z 33012G19KT 10SM FEW023 OVC035 11/04 A2993

TAF (pilot weather forecast)

Retrieved 2019/05/20 18:03 UTC (46 minutes ago):

TAF COR KAPN 201801Z 2018/2118 33012G19KT P6SM BKN021 FM202100 32013G22KT P6SM BKN025 FM202230 32012G22KT P6SM SCT030 FM210000 32011G20KT P6SM SKC FM210100 32010KT P6SM SKC FM211400 36005KT P6SM SKC